EGAE/LDY METAR and TAF weather

Enter ICAO airport designator
Station Type Date Time Source
EGAE METAR 2023/02/06 18:20 UTC NOAA

EGAE 061820Z 19009KT 9999 VCSH FEW012 SCT024 BKN028 09/07 Q1033


Station Type Date Time Source
EGAE Decoded METAR 2023/02/06 18:20 UTC NOAA

Eglinton / Londonderr, United Kingdom (EGAE) 55-03N 007-09W
Feb 06, 2023 - 01:20 PM EST / 2023.02.06 1820 UTC
Wind: from the S (190 degrees) at 10 MPH (9 KT):0
Visibility: greater than 7 mile(s):0
Sky conditions: mostly cloudy
Weather: showers in the vicinity
Temperature: 48 F (9 C)
Dew Point: 44 F (7 C)
Relative Humidity: 87%
Pressure (altimeter): 30.50 in. Hg (1033 hPa)
ob: EGAE 061820Z 19009KT 9999 VCSH FEW012 SCT024 BKN028 09/07 Q1033
cycle: 18

Station Type Date Time Source
EGAE TAF UTC NOAA

Error!

Example: see airport list